sensor_id;sensor_type;location;lat;lon;timestamp;P1;durP1;ratioP1;P2;durP2;ratioP2
36659;SDS011;22654;51.054;3.654;2022-12-10T00:01:12;148.23;;;50.25;;
36659;SDS011;22654;51.054;3.654;2022-12-10T00:03:40;134.60;;;47.00;;
36659;SDS011;22654;51.054;3.654;2022-12-10T00:06:08;141.43;;;47.00;;
36659;SDS011;22654;51.054;3.654;2022-12-10T00:08:36;135.98;;;48.55;;
36659;SDS011;22654;51.054;3.654;2022-12-10T00:11:03;141.02;;;48.92;;
36659;SDS011;22654;51.054;3.654;2022-12-10T00:13:30;140.98;;;47.03;;
36659;SDS011;22654;51.054;3.654;2022-12-10T00:16:00;139.50;;;44.15;;
36659;SDS011;22654;51.054;3.654;2022-12-10T00:18:28;129.68;;;45.80;;
36659;SDS011;22654;51.054;3.654;2022-12-10T00:20:54;153.77;;;50.25;;
36659;SDS011;22654;51.054;3.654;2022-12-10T00:23:20;148.32;;;49.80;;
36659;SDS011;22654;51.054;3.654;2022-12-10T00:25:46;140.73;;;47.30;;
36659;SDS011;22654;51.054;3.654;2022-12-10T00:28:12;138.68;;;48.10;;
36659;SDS011;22654;51.054;3.654;2022-12-10T00:30:39;150.10;;;51.35;;
36659;SDS011;22654;51.054;3.654;2022-12-10T00:33:05;145.18;;;50.22;;
36659;SDS011;22654;51.054;3.654;2022-12-10T00:35:36;148.95;;;51.20;;
36659;SDS011;22654;51.054;3.654;2022-12-10T00:38:02;161.30;;;48.95;;
36659;SDS011;22654;51.054;3.654;2022-12-10T00:40:28;155.02;;;49.42;;
36659;SDS011;22654;51.054;3.654;2022-12-10T00:42:54;146.30;;;47.58;;
36659;SDS011;22654;51.054;3.654;2022-12-10T00:45:20;148.68;;;50.30;;
36659;SDS011;22654;51.054;3.654;2022-12-10T00:47:46;161.15;;;50.83;;
36659;SDS011;22654;51.054;3.654;2022-12-10T00:50:11;157.60;;;51.60;;
36659;SDS011;22654;51.054;3.654;2022-12-10T00:52:37;154.88;;;48.63;;
36659;SDS011;22654;51.054;3.654;2022-12-10T00:55:03;157.20;;;50.33;;
36659;SDS011;22654;51.054;3.654;2022-12-10T00:57:29;158.75;;;51.47;;
36659;SDS011;22654;51.054;3.654;2022-12-10T00:59:55;153.98;;;49.38;;
36659;SDS011;22654;51.054;3.654;2022-12-10T01:02:21;166.18;;;51.35;;
36659;SDS011;22654;51.054;3.654;2022-12-10T01:04:51;161.82;;;50.00;;
36659;SDS011;22654;51.054;3.654;2022-12-10T01:07:18;163.27;;;48.75;;
36659;SDS011;22654;51.054;3.654;2022-12-10T01:09:43;161.85;;;51.58;;
36659;SDS011;22654;51.054;3.654;2022-12-10T01:12:09;169.27;;;51.55;;
36659;SDS011;22654;51.054;3.654;2022-12-10T01:14:36;161.07;;;49.58;;
36659;SDS011;22654;51.054;3.654;2022-12-10T01:17:02;170.05;;;51.70;;
36659;SDS011;22654;51.054;3.654;2022-12-10T01:19:30;158.88;;;49.90;;
36659;SDS011;22654;51.054;3.654;2022-12-10T01:22:00;164.88;;;51.63;;
36659;SDS011;22654;51.054;3.654;2022-12-10T01:24:28;175.65;;;50.28;;
36659;SDS011;22654;51.054;3.654;2022-12-10T01:26:54;164.48;;;49.88;;
36659;SDS011;22654;51.054;3.654;2022-12-10T01:29:20;163.52;;;48.60;;
36659;SDS011;22654;51.054;3.654;2022-12-10T01:31:49;165.60;;;52.33;;
36659;SDS011;22654;51.054;3.654;2022-12-10T01:34:16;153.82;;;49.63;;
36659;SDS011;22654;51.054;3.654;2022-12-10T01:36:43;168.55;;;51.72;;
36659;SDS011;22654;51.054;3.654;2022-12-10T01:39:11;161.88;;;49.28;;
36659;SDS011;22654;51.054;3.654;2022-12-10T01:41:44;162.45;;;53.58;;
36659;SDS011;22654;51.054;3.654;2022-12-10T01:46:43;165.70;;;53.15;;
36659;SDS011;22654;51.054;3.654;2022-12-10T01:49:11;153.70;;;47.78;;
36659;SDS011;22654;51.054;3.654;2022-12-10T01:51:43;159.27;;;48.38;;
36659;SDS011;22654;51.054;3.654;2022-12-10T01:54:12;166.15;;;49.13;;
36659;SDS011;22654;51.054;3.654;2022-12-10T01:56:44;163.30;;;49.53;;
36659;SDS011;22654;51.054;3.654;2022-12-10T01:59:12;146.20;;;44.63;;
36659;SDS011;22654;51.054;3.654;2022-12-10T02:01:51;138.77;;;43.42;;
36659;SDS011;22654;51.054;3.654;2022-12-10T02:07:24;125.80;;;43.47;;
36659;SDS011;22654;51.054;3.654;2022-12-10T02:22:42;165.93;;;42.78;;
36659;SDS011;22654;51.054;3.654;2022-12-10T02:25:15;271.42;;;52.00;;
36659;SDS011;22654;51.054;3.654;2022-12-10T02:27:54;164.27;;;44.15;;
36659;SDS011;22654;51.054;3.654;2022-12-10T02:30:47;116.88;;;40.45;;
36659;SDS011;22654;51.054;3.654;2022-12-10T02:33:16;133.38;;;38.92;;
36659;SDS011;22654;51.054;3.654;2022-12-10T02:35:44;104.40;;;40.70;;
36659;SDS011;22654;51.054;3.654;2022-12-10T02:38:30;127.03;;;41.67;;
36659;SDS011;22654;51.054;3.654;2022-12-10T02:41:12;132.95;;;42.13;;
36659;SDS011;22654;51.054;3.654;2022-12-10T02:46:09;158.75;;;43.60;;
36659;SDS011;22654;51.054;3.654;2022-12-10T02:48:36;144.85;;;42.95;;
36659;SDS011;22654;51.054;3.654;2022-12-10T02:51:02;249.20;;;48.97;;
36659;SDS011;22654;51.054;3.654;2022-12-10T02:53:28;207.63;;;47.47;;
36659;SDS011;22654;51.054;3.654;2022-12-10T03:04:22;191.60;;;49.15;;
36659;SDS011;22654;51.054;3.654;2022-12-10T03:07:06;253.68;;;49.58;;
36659;SDS011;22654;51.054;3.654;2022-12-10T03:09:39;145.48;;;41.67;;
36659;SDS011;22654;51.054;3.654;2022-12-10T03:12:33;149.77;;;42.65;;
36659;SDS011;22654;51.054;3.654;2022-12-10T03:15:02;318.33;;;52.47;;
36659;SDS011;22654;51.054;3.654;2022-12-10T03:17:31;115.10;;;43.23;;
36659;SDS011;22654;51.054;3.654;2022-12-10T03:19:58;153.73;;;42.92;;
36659;SDS011;22654;51.054;3.654;2022-12-10T03:22:25;158.75;;;42.10;;
36659;SDS011;22654;51.054;3.654;2022-12-10T03:24:52;100.18;;;37.47;;
36659;SDS011;22654;51.054;3.654;2022-12-10T03:27:19;124.15;;;42.63;;
36659;SDS011;22654;51.054;3.654;2022-12-10T03:29:51;266.38;;;50.30;;
36659;SDS011;22654;51.054;3.654;2022-12-10T03:32:20;163.95;;;43.67;;
36659;SDS011;22654;51.054;3.654;2022-12-10T03:34:49;118.00;;;42.13;;
36659;SDS011;22654;51.054;3.654;2022-12-10T03:37:18;160.55;;;41.40;;
36659;SDS011;22654;51.054;3.654;2022-12-10T03:39:44;186.75;;;45.55;;
36659;SDS011;22654;51.054;3.654;2022-12-10T03:42:11;118.13;;;39.78;;
36659;SDS011;22654;51.054;3.654;2022-12-10T03:44:38;195.60;;;46.15;;
36659;SDS011;22654;51.054;3.654;2022-12-10T03:47:06;221.05;;;46.85;;
36659;SDS011;22654;51.054;3.654;2022-12-10T03:49:35;230.93;;;49.17;;
36659;SDS011;22654;51.054;3.654;2022-12-10T03:52:01;106.88;;;40.38;;
36659;SDS011;22654;51.054;3.654;2022-12-10T03:54:27;186.48;;;42.85;;
36659;SDS011;22654;51.054;3.654;2022-12-10T03:56:53;202.82;;;42.83;;
36659;SDS011;22654;51.054;3.654;2022-12-10T03:59:19;149.93;;;43.35;;
36659;SDS011;22654;51.054;3.654;2022-12-10T04:01:45;343.40;;;55.55;;
36659;SDS011;22654;51.054;3.654;2022-12-10T04:04:11;129.68;;;42.13;;
36659;SDS011;22654;51.054;3.654;2022-12-10T04:06:38;121.90;;;40.60;;
36659;SDS011;22654;51.054;3.654;2022-12-10T04:09:04;198.48;;;48.42;;
36659;SDS011;22654;51.054;3.654;2022-12-10T04:11:31;116.57;;;40.42;;
36659;SDS011;22654;51.054;3.654;2022-12-10T04:13:57;110.28;;;39.78;;
36659;SDS011;22654;51.054;3.654;2022-12-10T04:16:41;153.80;;;43.35;;
36659;SDS011;22654;51.054;3.654;2022-12-10T04:19:08;138.02;;;41.50;;
36659;SDS011;22654;51.054;3.654;2022-12-10T04:21:36;129.50;;;41.13;;
36659;SDS011;22654;51.054;3.654;2022-12-10T04:24:26;160.10;;;42.72;;
36659;SDS011;22654;51.054;3.654;2022-12-10T04:29:48;154.65;;;42.40;;
36659;SDS011;22654;51.054;3.654;2022-12-10T04:32:15;105.45;;;37.22;;
36659;SDS011;22654;51.054;3.654;2022-12-10T04:34:42;120.50;;;41.45;;
36659;SDS011;22654;51.054;3.654;2022-12-10T04:37:08;128.10;;;41.03;;
36659;SDS011;22654;51.054;3.654;2022-12-10T04:39:36;152.63;;;38.47;;
36659;SDS011;22654;51.054;3.654;2022-12-10T04:42:02;112.03;;;39.50;;
36659;SDS011;22654;51.054;3.654;2022-12-10T04:44:29;213.68;;;44.83;;
36659;SDS011;22654;51.054;3.654;2022-12-10T04:46:55;120.32;;;37.05;;
36659;SDS011;22654;51.054;3.654;2022-12-10T04:49:21;134.55;;;38.55;;
36659;SDS011;22654;51.054;3.654;2022-12-10T04:51:48;188.15;;;39.92;;
36659;SDS011;22654;51.054;3.654;2022-12-10T04:54:15;120.90;;;37.90;;
36659;SDS011;22654;51.054;3.654;2022-12-10T04:56:41;188.40;;;40.78;;
36659;SDS011;22654;51.054;3.654;2022-12-10T04:59:07;165.40;;;39.80;;
36659;SDS011;22654;51.054;3.654;2022-12-10T05:01:37;221.98;;;43.15;;
36659;SDS011;22654;51.054;3.654;2022-12-10T05:04:04;399.23;;;53.30;;
36659;SDS011;22654;51.054;3.654;2022-12-10T05:06:33;165.40;;;39.50;;
36659;SDS011;22654;51.054;3.654;2022-12-10T05:08:59;153.02;;;40.13;;
36659;SDS011;22654;51.054;3.654;2022-12-10T05:11:26;124.13;;;39.92;;
36659;SDS011;22654;51.054;3.654;2022-12-10T05:13:54;211.13;;;44.63;;
36659;SDS011;22654;51.054;3.654;2022-12-10T05:16:22;103.85;;;36.38;;
36659;SDS011;22654;51.054;3.654;2022-12-10T05:18:50;102.63;;;36.33;;
36659;SDS011;22654;51.054;3.654;2022-12-10T05:21:17;106.00;;;35.03;;
36659;SDS011;22654;51.054;3.654;2022-12-10T05:23:47;139.77;;;40.47;;
36659;SDS011;22654;51.054;3.654;2022-12-10T05:26:16;103.80;;;36.97;;
36659;SDS011;22654;51.054;3.654;2022-12-10T05:31:24;144.80;;;37.10;;
36659;SDS011;22654;51.054;3.654;2022-12-10T05:33:51;158.88;;;39.22;;
36659;SDS011;22654;51.054;3.654;2022-12-10T05:36:20;116.70;;;37.28;;
36659;SDS011;22654;51.054;3.654;2022-12-10T05:38:48;346.05;;;48.83;;
36659;SDS011;22654;51.054;3.654;2022-12-10T05:41:16;157.45;;;39.25;;
36659;SDS011;22654;51.054;3.654;2022-12-10T05:43:47;124.82;;;37.38;;
36659;SDS011;22654;51.054;3.654;2022-12-10T05:46:17;159.52;;;41.42;;
36659;SDS011;22654;51.054;3.654;2022-12-10T05:48:48;115.47;;;37.05;;
36659;SDS011;22654;51.054;3.654;2022-12-10T05:51:16;86.88;;;33.80;;
36659;SDS011;22654;51.054;3.654;2022-12-10T05:53:45;111.28;;;35.75;;
36659;SDS011;22654;51.054;3.654;2022-12-10T05:56:12;89.10;;;34.33;;
36659;SDS011;22654;51.054;3.654;2022-12-10T05:58:41;125.53;;;34.35;;
36659;SDS011;22654;51.054;3.654;2022-12-10T06:01:09;116.72;;;35.53;;
36659;SDS011;22654;51.054;3.654;2022-12-10T06:03:37;157.60;;;37.78;;
36659;SDS011;22654;51.054;3.654;2022-12-10T06:06:03;392.77;;;49.90;;
36659;SDS011;22654;51.054;3.654;2022-12-10T06:08:30;155.52;;;38.08;;
36659;SDS011;22654;51.054;3.654;2022-12-10T06:11:04;185.45;;;40.85;;
36659;SDS011;22654;51.054;3.654;2022-12-10T06:13:31;194.60;;;42.13;;
36659;SDS011;22654;51.054;3.654;2022-12-10T06:15:57;196.48;;;40.97;;
36659;SDS011;22654;51.054;3.654;2022-12-10T06:18:31;199.35;;;41.58;;
36659;SDS011;22654;51.054;3.654;2022-12-10T06:20:56;137.18;;;38.47;;
36659;SDS011;22654;51.054;3.654;2022-12-10T06:23:23;183.68;;;41.78;;
36659;SDS011;22654;51.054;3.654;2022-12-10T06:25:49;137.95;;;38.80;;
36659;SDS011;22654;51.054;3.654;2022-12-10T06:28:15;158.13;;;40.35;;
36659;SDS011;22654;51.054;3.654;2022-12-10T06:30:41;139.23;;;38.72;;
36659;SDS011;22654;51.054;3.654;2022-12-10T06:33:06;215.25;;;40.78;;
36659;SDS011;22654;51.054;3.654;2022-12-10T06:35:33;168.52;;;40.47;;
36659;SDS011;22654;51.054;3.654;2022-12-10T06:37:59;133.18;;;39.13;;
36659;SDS011;22654;51.054;3.654;2022-12-10T06:40:25;197.85;;;41.85;;
36659;SDS011;22654;51.054;3.654;2022-12-10T06:42:51;205.10;;;39.58;;
36659;SDS011;22654;51.054;3.654;2022-12-10T06:45:17;182.40;;;39.17;;
36659;SDS011;22654;51.054;3.654;2022-12-10T06:47:43;339.90;;;45.58;;
36659;SDS011;22654;51.054;3.654;2022-12-10T06:50:09;200.10;;;41.05;;
36659;SDS011;22654;51.054;3.654;2022-12-10T06:52:35;167.43;;;41.08;;
36659;SDS011;22654;51.054;3.654;2022-12-10T06:55:01;195.20;;;41.53;;
36659;SDS011;22654;51.054;3.654;2022-12-10T06:57:26;150.85;;;40.45;;
36659;SDS011;22654;51.054;3.654;2022-12-10T06:59:52;204.93;;;43.47;;
36659;SDS011;22654;51.054;3.654;2022-12-10T07:02:18;115.03;;;38.08;;
36659;SDS011;22654;51.054;3.654;2022-12-10T07:04:44;228.60;;;45.13;;
36659;SDS011;22654;51.054;3.654;2022-12-10T07:07:10;149.65;;;41.88;;
36659;SDS011;22654;51.054;3.654;2022-12-10T07:09:35;238.77;;;45.42;;
36659;SDS011;22654;51.054;3.654;2022-12-10T07:12:04;315.95;;;51.58;;
36659;SDS011;22654;51.054;3.654;2022-12-10T07:14:30;128.13;;;39.97;;
36659;SDS011;22654;51.054;3.654;2022-12-10T07:16:56;289.92;;;47.80;;
36659;SDS011;22654;51.054;3.654;2022-12-10T07:19:22;118.78;;;36.75;;
36659;SDS011;22654;51.054;3.654;2022-12-10T07:21:48;298.58;;;47.92;;
36659;SDS011;22654;51.054;3.654;2022-12-10T07:24:17;219.13;;;42.78;;
36659;SDS011;22654;51.054;3.654;2022-12-10T07:26:44;130.30;;;39.40;;
36659;SDS011;22654;51.054;3.654;2022-12-10T07:29:15;205.88;;;42.67;;
36659;SDS011;22654;51.054;3.654;2022-12-10T07:31:44;214.30;;;44.70;;
36659;SDS011;22654;51.054;3.654;2022-12-10T07:34:10;136.27;;;38.35;;
36659;SDS011;22654;51.054;3.654;2022-12-10T07:36:37;127.72;;;39.72;;
36659;SDS011;22654;51.054;3.654;2022-12-10T07:39:05;179.30;;;39.95;;
36659;SDS011;22654;51.054;3.654;2022-12-10T07:41:32;138.88;;;38.42;;
36659;SDS011;22654;51.054;3.654;2022-12-10T07:43:58;119.55;;;36.92;;
36659;SDS011;22654;51.054;3.654;2022-12-10T07:46:25;130.95;;;37.97;;
36659;SDS011;22654;51.054;3.654;2022-12-10T07:48:54;110.70;;;35.35;;
36659;SDS011;22654;51.054;3.654;2022-12-10T07:51:20;133.10;;;39.42;;
36659;SDS011;22654;51.054;3.654;2022-12-10T07:53:48;142.88;;;38.95;;
36659;SDS011;22654;51.054;3.654;2022-12-10T07:56:16;176.30;;;37.97;;
36659;SDS011;22654;51.054;3.654;2022-12-10T07:58:43;183.57;;;41.47;;
36659;SDS011;22654;51.054;3.654;2022-12-10T08:01:11;160.75;;;39.50;;
36659;SDS011;22654;51.054;3.654;2022-12-10T08:03:39;133.00;;;38.83;;
36659;SDS011;22654;51.054;3.654;2022-12-10T08:06:10;114.75;;;37.65;;
36659;SDS011;22654;51.054;3.654;2022-12-10T08:08:38;111.10;;;37.53;;
36659;SDS011;22654;51.054;3.654;2022-12-10T08:11:05;129.10;;;39.10;;
36659;SDS011;22654;51.054;3.654;2022-12-10T08:13:32;132.68;;;40.80;;
36659;SDS011;22654;51.054;3.654;2022-12-10T08:16:06;178.15;;;44.92;;
36659;SDS011;22654;51.054;3.654;2022-12-10T08:18:37;141.18;;;42.17;;
36659;SDS011;22654;51.054;3.654;2022-12-10T08:21:08;157.88;;;41.90;;
36659;SDS011;22654;51.054;3.654;2022-12-10T08:23:35;147.73;;;42.42;;
36659;SDS011;22654;51.054;3.654;2022-12-10T08:26:05;124.32;;;41.80;;
36659;SDS011;22654;51.054;3.654;2022-12-10T08:28:35;171.27;;;44.28;;
36659;SDS011;22654;51.054;3.654;2022-12-10T08:31:02;218.40;;;48.00;;
36659;SDS011;22654;51.054;3.654;2022-12-10T08:33:28;151.98;;;42.53;;
36659;SDS011;22654;51.054;3.654;2022-12-10T08:35:58;169.90;;;46.15;;
36659;SDS011;22654;51.054;3.654;2022-12-10T08:38:25;148.85;;;42.08;;
36659;SDS011;22654;51.054;3.654;2022-12-10T08:40:51;138.80;;;41.35;;
36659;SDS011;22654;51.054;3.654;2022-12-10T08:43:16;130.85;;;40.92;;
36659;SDS011;22654;51.054;3.654;2022-12-10T08:45:42;117.93;;;39.03;;
36659;SDS011;22654;51.054;3.654;2022-12-10T08:48:08;170.20;;;44.42;;
36659;SDS011;22654;51.054;3.654;2022-12-10T08:50:34;129.20;;;40.55;;
36659;SDS011;22654;51.054;3.654;2022-12-10T08:53:01;150.85;;;40.58;;
36659;SDS011;22654;51.054;3.654;2022-12-10T08:55:27;113.50;;;38.10;;
36659;SDS011;22654;51.054;3.654;2022-12-10T08:57:53;125.97;;;39.72;;
36659;SDS011;22654;51.054;3.654;2022-12-10T09:00:19;116.80;;;36.20;;
36659;SDS011;22654;51.054;3.654;2022-12-10T09:02:45;128.10;;;39.35;;
36659;SDS011;22654;51.054;3.654;2022-12-10T09:05:11;135.77;;;41.63;;
36659;SDS011;22654;51.054;3.654;2022-12-10T09:07:38;139.48;;;41.00;;
36659;SDS011;22654;51.054;3.654;2022-12-10T09:10:03;113.70;;;37.75;;
36659;SDS011;22654;51.054;3.654;2022-12-10T09:12:30;126.78;;;37.63;;
36659;SDS011;22654;51.054;3.654;2022-12-10T09:14:57;94.35;;;34.95;;
36659;SDS011;22654;51.054;3.654;2022-12-10T09:17:23;114.68;;;37.13;;
36659;SDS011;22654;51.054;3.654;2022-12-10T09:19:49;98.55;;;36.08;;
36659;SDS011;22654;51.054;3.654;2022-12-10T09:22:15;108.22;;;38.50;;
36659;SDS011;22654;51.054;3.654;2022-12-10T09:24:40;105.55;;;36.38;;
36659;SDS011;22654;51.054;3.654;2022-12-10T09:27:06;103.60;;;37.08;;
36659;SDS011;22654;51.054;3.654;2022-12-10T09:29:32;93.10;;;32.58;;
36659;SDS011;22654;51.054;3.654;2022-12-10T09:31:58;99.28;;;34.35;;
36659;SDS011;22654;51.054;3.654;2022-12-10T09:34:24;102.22;;;35.10;;
36659;SDS011;22654;51.054;3.654;2022-12-10T09:36:50;84.75;;;33.90;;
36659;SDS011;22654;51.054;3.654;2022-12-10T09:39:15;98.53;;;35.88;;
36659;SDS011;22654;51.054;3.654;2022-12-10T09:47:35;95.45;;;32.28;;
36659;SDS011;22654;51.054;3.654;2022-12-10T09:53:01;79.65;;;30.33;;
36659;SDS011;22654;51.054;3.654;2022-12-10T09:55:40;85.95;;;31.00;;
36659;SDS011;22654;51.054;3.654;2022-12-10T09:58:13;77.70;;;30.48;;
36659;SDS011;22654;51.054;3.654;2022-12-10T10:00:47;89.18;;;34.53;;
36659;SDS011;22654;51.054;3.654;2022-12-10T10:03:16;90.15;;;32.00;;
36659;SDS011;22654;51.054;3.654;2022-12-10T10:05:46;112.25;;;33.38;;
36659;SDS011;22654;51.054;3.654;2022-12-10T10:08:38;90.95;;;34.40;;
36659;SDS011;22654;51.054;3.654;2022-12-10T10:11:03;75.00;;;31.92;;
36659;SDS011;22654;51.054;3.654;2022-12-10T10:16:25;81.75;;;29.15;;
36659;SDS011;22654;51.054;3.654;2022-12-10T10:19:03;78.45;;;30.23;;
36659;SDS011;22654;51.054;3.654;2022-12-10T10:24:10;67.80;;;27.63;;
36659;SDS011;22654;51.054;3.654;2022-12-10T10:26:39;71.50;;;29.52;;
36659;SDS011;22654;51.054;3.654;2022-12-10T10:29:06;65.13;;;28.15;;
36659;SDS011;22654;51.054;3.654;2022-12-10T10:31:36;66.07;;;28.63;;
36659;SDS011;22654;51.054;3.654;2022-12-10T10:34:06;68.25;;;28.58;;
36659;SDS011;22654;51.054;3.654;2022-12-10T10:36:44;66.38;;;28.67;;
36659;SDS011;22654;51.054;3.654;2022-12-10T10:41:43;65.25;;;28.00;;
36659;SDS011;22654;51.054;3.654;2022-12-10T10:44:16;60.38;;;26.13;;
36659;SDS011;22654;51.054;3.654;2022-12-10T10:46:45;83.82;;;28.92;;
36659;SDS011;22654;51.054;3.654;2022-12-10T10:49:18;63.20;;;26.98;;
36659;SDS011;22654;51.054;3.654;2022-12-10T10:51:50;57.67;;;26.65;;
36659;SDS011;22654;51.054;3.654;2022-12-10T10:54:38;59.05;;;27.70;;
36659;SDS011;22654;51.054;3.654;2022-12-10T10:57:16;58.42;;;25.90;;
36659;SDS011;22654;51.054;3.654;2022-12-10T10:59:48;54.15;;;25.83;;
36659;SDS011;22654;51.054;3.654;2022-12-10T11:02:19;53.60;;;24.58;;
36659;SDS011;22654;51.054;3.654;2022-12-10T11:05:08;50.97;;;23.65;;
36659;SDS011;22654;51.054;3.654;2022-12-10T11:07:42;48.47;;;23.42;;
36659;SDS011;22654;51.054;3.654;2022-12-10T11:10:18;40.63;;;23.17;;
36659;SDS011;22654;51.054;3.654;2022-12-10T11:13:05;38.90;;;21.95;;
36659;SDS011;22654;51.054;3.654;2022-12-10T11:15:42;40.63;;;21.77;;
36659;SDS011;22654;51.054;3.654;2022-12-10T11:20:58;38.95;;;22.00;;
36659;SDS011;22654;51.054;3.654;2022-12-10T11:23:27;43.45;;;22.17;;
36659;SDS011;22654;51.054;3.654;2022-12-10T11:37:32;38.03;;;20.23;;
36659;SDS011;22654;51.054;3.654;2022-12-10T11:45:14;29.67;;;17.13;;
36659;SDS011;22654;51.054;3.654;2022-12-10T11:48:07;32.47;;;19.38;;
36659;SDS011;22654;51.054;3.654;2022-12-10T11:50:41;37.35;;;19.58;;
36659;SDS011;22654;51.054;3.654;2022-12-10T11:56:02;34.35;;;20.15;;
36659;SDS011;22654;51.054;3.654;2022-12-10T12:13:02;32.70;;;19.63;;
36659;SDS011;22654;51.054;3.654;2022-12-10T12:15:52;35.20;;;19.27;;
36659;SDS011;22654;51.054;3.654;2022-12-10T12:18:21;31.20;;;18.80;;
36659;SDS011;22654;51.054;3.654;2022-12-10T12:21:07;30.55;;;18.48;;
36659;SDS011;22654;51.054;3.654;2022-12-10T12:26:30;32.72;;;19.98;;
36659;SDS011;22654;51.054;3.654;2022-12-10T12:29:20;30.40;;;18.20;;
36659;SDS011;22654;51.054;3.654;2022-12-10T12:31:56;35.60;;;19.75;;
36659;SDS011;22654;51.054;3.654;2022-12-10T12:34:37;33.75;;;19.45;;
36659;SDS011;22654;51.054;3.654;2022-12-10T12:37:17;33.13;;;18.75;;
36659;SDS011;22654;51.054;3.654;2022-12-10T12:42:47;32.10;;;18.33;;
36659;SDS011;22654;51.054;3.654;2022-12-10T12:45:28;31.67;;;18.65;;
36659;SDS011;22654;51.054;3.654;2022-12-10T12:51:06;37.05;;;23.27;;
36659;SDS011;22654;51.054;3.654;2022-12-10T12:53:37;39.65;;;22.50;;
36659;SDS011;22654;51.054;3.654;2022-12-10T12:56:39;41.58;;;22.73;;
36659;SDS011;22654;51.054;3.654;2022-12-10T12:59:02;35.05;;;23.27;;
36659;SDS011;22654;51.054;3.654;2022-12-10T13:04:04;36.70;;;21.58;;
36659;SDS011;22654;51.054;3.654;2022-12-10T13:06:32;33.30;;;21.13;;
36659;SDS011;22654;51.054;3.654;2022-12-10T13:11:38;34.38;;;19.65;;
36659;SDS011;22654;51.054;3.654;2022-12-10T13:27:38;41.47;;;23.30;;
36659;SDS011;22654;51.054;3.654;2022-12-10T13:31:05;38.58;;;22.48;;
36659;SDS011;22654;51.054;3.654;2022-12-10T13:37:03;39.92;;;22.25;;
36659;SDS011;22654;51.054;3.654;2022-12-10T13:39:33;47.92;;;24.30;;
36659;SDS011;22654;51.054;3.654;2022-12-10T13:45:02;41.45;;;24.35;;
36659;SDS011;22654;51.054;3.654;2022-12-10T13:47:49;38.90;;;22.88;;
36659;SDS011;22654;51.054;3.654;2022-12-10T13:55:20;41.22;;;24.23;;
36659;SDS011;22654;51.054;3.654;2022-12-10T14:01:33;40.22;;;23.02;;
36659;SDS011;22654;51.054;3.654;2022-12-10T14:06:43;42.40;;;24.20;;
36659;SDS011;22654;51.054;3.654;2022-12-10T14:09:11;42.00;;;25.33;;
36659;SDS011;22654;51.054;3.654;2022-12-10T14:11:48;42.75;;;25.40;;
36659;SDS011;22654;51.054;3.654;2022-12-10T14:14:26;40.17;;;26.13;;
36659;SDS011;22654;51.054;3.654;2022-12-10T14:17:04;48.63;;;27.10;;
36659;SDS011;22654;51.054;3.654;2022-12-10T14:19:36;44.88;;;27.58;;
36659;SDS011;22654;51.054;3.654;2022-12-10T14:22:08;40.70;;;26.17;;
36659;SDS011;22654;51.054;3.654;2022-12-10T14:24:43;39.35;;;25.17;;
36659;SDS011;22654;51.054;3.654;2022-12-10T14:29:43;45.78;;;27.52;;
36659;SDS011;22654;51.054;3.654;2022-12-10T14:32:14;45.83;;;28.20;;
36659;SDS011;22654;51.054;3.654;2022-12-10T14:34:43;42.55;;;26.45;;
36659;SDS011;22654;51.054;3.654;2022-12-10T14:37:16;41.67;;;26.45;;
36659;SDS011;22654;51.054;3.654;2022-12-10T14:39:44;44.75;;;28.00;;
36659;SDS011;22654;51.054;3.654;2022-12-10T14:42:12;44.38;;;28.58;;
36659;SDS011;22654;51.054;3.654;2022-12-10T14:44:41;39.37;;;26.47;;
36659;SDS011;22654;51.054;3.654;2022-12-10T14:47:20;46.70;;;29.58;;
36659;SDS011;22654;51.054;3.654;2022-12-10T14:49:47;48.17;;;27.15;;
36659;SDS011;22654;51.054;3.654;2022-12-10T14:52:31;45.47;;;27.83;;
36659;SDS011;22654;51.054;3.654;2022-12-10T14:55:00;43.17;;;28.35;;
36659;SDS011;22654;51.054;3.654;2022-12-10T14:57:28;168.00;;;38.58;;
36659;SDS011;22654;51.054;3.654;2022-12-10T15:00:00;48.67;;;28.67;;
36659;SDS011;22654;51.054;3.654;2022-12-10T15:02:39;45.03;;;27.58;;
36659;SDS011;22654;51.054;3.654;2022-12-10T15:05:13;43.70;;;26.25;;
36659;SDS011;22654;51.054;3.654;2022-12-10T15:07:52;66.45;;;26.98;;
36659;SDS011;22654;51.054;3.654;2022-12-10T15:10:19;60.60;;;30.98;;
36659;SDS011;22654;51.054;3.654;2022-12-10T15:12:53;43.22;;;29.92;;
36659;SDS011;22654;51.054;3.654;2022-12-10T15:15:40;49.47;;;27.75;;
36659;SDS011;22654;51.054;3.654;2022-12-10T15:20:36;44.58;;;28.33;;
36659;SDS011;22654;51.054;3.654;2022-12-10T15:26:32;43.55;;;26.50;;
36659;SDS011;22654;51.054;3.654;2022-12-10T15:28:35;44.97;;;27.08;;
36659;SDS011;22654;51.054;3.654;2022-12-10T15:34:08;45.28;;;26.73;;
36659;SDS011;22654;51.054;3.654;2022-12-10T15:49:23;41.58;;;25.08;;
36659;SDS011;22654;51.054;3.654;2022-12-10T15:51:50;39.70;;;25.88;;
36659;SDS011;22654;51.054;3.654;2022-12-10T15:54:23;40.97;;;25.58;;
36659;SDS011;22654;51.054;3.654;2022-12-10T15:56:52;44.40;;;28.35;;
36659;SDS011;22654;51.054;3.654;2022-12-10T15:59:18;43.95;;;28.58;;
36659;SDS011;22654;51.054;3.654;2022-12-10T16:01:44;46.17;;;29.45;;
36659;SDS011;22654;51.054;3.654;2022-12-10T16:04:11;48.28;;;28.02;;
36659;SDS011;22654;51.054;3.654;2022-12-10T16:06:37;44.33;;;27.70;;
36659;SDS011;22654;51.054;3.654;2022-12-10T16:09:03;45.20;;;27.55;;
36659;SDS011;22654;51.054;3.654;2022-12-10T16:11:29;41.13;;;27.58;;
36659;SDS011;22654;51.054;3.654;2022-12-10T16:13:56;49.65;;;29.15;;
36659;SDS011;22654;51.054;3.654;2022-12-10T16:16:22;47.60;;;29.95;;
36659;SDS011;22654;51.054;3.654;2022-12-10T16:18:49;47.67;;;29.00;;
36659;SDS011;22654;51.054;3.654;2022-12-10T16:21:15;45.95;;;28.75;;
36659;SDS011;22654;51.054;3.654;2022-12-10T16:23:41;52.13;;;30.48;;
36659;SDS011;22654;51.054;3.654;2022-12-10T16:28:44;51.30;;;32.40;;
36659;SDS011;22654;51.054;3.654;2022-12-10T16:31:12;46.85;;;29.52;;
36659;SDS011;22654;51.054;3.654;2022-12-10T16:33:41;48.10;;;29.35;;
36659;SDS011;22654;51.054;3.654;2022-12-10T16:36:07;53.70;;;32.30;;
36659;SDS011;22654;51.054;3.654;2022-12-10T16:38:34;46.55;;;31.52;;
36659;SDS011;22654;51.054;3.654;2022-12-10T16:41:00;54.60;;;33.45;;
36659;SDS011;22654;51.054;3.654;2022-12-10T16:43:27;52.08;;;33.40;;
36659;SDS011;22654;51.054;3.654;2022-12-10T16:45:55;49.30;;;32.63;;
36659;SDS011;22654;51.054;3.654;2022-12-10T16:48:22;52.08;;;33.85;;
36659;SDS011;22654;51.054;3.654;2022-12-10T16:50:49;56.83;;;33.13;;
36659;SDS011;22654;51.054;3.654;2022-12-10T16:53:26;54.47;;;34.72;;
36659;SDS011;22654;51.054;3.654;2022-12-10T16:55:54;53.72;;;33.95;;
36659;SDS011;22654;51.054;3.654;2022-12-10T16:58:21;54.15;;;34.88;;
36659;SDS011;22654;51.054;3.654;2022-12-10T17:00:49;55.72;;;34.72;;
36659;SDS011;22654;51.054;3.654;2022-12-10T17:03:18;53.85;;;34.10;;
36659;SDS011;22654;51.054;3.654;2022-12-10T17:05:51;52.95;;;33.90;;
36659;SDS011;22654;51.054;3.654;2022-12-10T17:08:21;52.78;;;33.20;;